sensor_id;sensor_type;location;lat;lon;timestamp;P1;durP1;ratioP1;P2;durP2;ratioP2
10977;SDS011;5542;48.272;10.794;2023-11-18T00:02:19;1.83;;;1.73;;
10977;SDS011;5542;48.272;10.794;2023-11-18T00:04:47;2.80;;;2.10;;
10977;SDS011;5542;48.272;10.794;2023-11-18T00:07:13;1.80;;;1.70;;
10977;SDS011;5542;48.272;10.794;2023-11-18T00:09:40;2.70;;;1.90;;
10977;SDS011;5542;48.272;10.794;2023-11-18T00:12:10;1.80;;;1.70;;
10977;SDS011;5542;48.272;10.794;2023-11-18T00:14:37;2.35;;;2.15;;
10977;SDS011;5542;48.272;10.794;2023-11-18T00:17:05;2.03;;;1.92;;
10977;SDS011;5542;48.272;10.794;2023-11-18T00:19:32;1.92;;;1.83;;
10977;SDS011;5542;48.272;10.794;2023-11-18T00:22:02;2.10;;;2.00;;
10977;SDS011;5542;48.272;10.794;2023-11-18T00:24:31;1.95;;;1.85;;
10977;SDS011;5542;48.272;10.794;2023-11-18T00:26:59;1.80;;;1.70;;
10977;SDS011;5542;48.272;10.794;2023-11-18T00:29:30;1.60;;;1.50;;
10977;SDS011;5542;48.272;10.794;2023-11-18T00:31:57;1.65;;;1.55;;
10977;SDS011;5542;48.272;10.794;2023-11-18T00:34:23;2.00;;;1.90;;
10977;SDS011;5542;48.272;10.794;2023-11-18T00:36:50;2.00;;;1.90;;
10977;SDS011;5542;48.272;10.794;2023-11-18T00:39:18;1.85;;;1.75;;
10977;SDS011;5542;48.272;10.794;2023-11-18T00:41:45;1.98;;;1.88;;
10977;SDS011;5542;48.272;10.794;2023-11-18T00:44:12;1.90;;;1.70;;
10977;SDS011;5542;48.272;10.794;2023-11-18T00:46:38;2.10;;;2.00;;
10977;SDS011;5542;48.272;10.794;2023-11-18T00:49:05;1.70;;;1.60;;
10977;SDS011;5542;48.272;10.794;2023-11-18T00:51:31;1.73;;;1.63;;
10977;SDS011;5542;48.272;10.794;2023-11-18T00:53:58;2.38;;;2.17;;
10977;SDS011;5542;48.272;10.794;2023-11-18T00:56:28;1.70;;;1.60;;
10977;SDS011;5542;48.272;10.794;2023-11-18T00:58:54;1.98;;;1.88;;
10977;SDS011;5542;48.272;10.794;2023-11-18T01:01:21;2.05;;;1.95;;
10977;SDS011;5542;48.272;10.794;2023-11-18T01:03:47;1.60;;;1.50;;
10977;SDS011;5542;48.272;10.794;2023-11-18T01:06:14;1.67;;;1.58;;
10977;SDS011;5542;48.272;10.794;2023-11-18T01:08:43;1.55;;;1.45;;
10977;SDS011;5542;48.272;10.794;2023-11-18T01:11:09;1.77;;;1.67;;
10977;SDS011;5542;48.272;10.794;2023-11-18T01:13:38;1.80;;;1.70;;
10977;SDS011;5542;48.272;10.794;2023-11-18T01:16:05;1.52;;;1.42;;
10977;SDS011;5542;48.272;10.794;2023-11-18T01:18:32;1.98;;;1.88;;
10977;SDS011;5542;48.272;10.794;2023-11-18T01:20:58;1.60;;;1.50;;
10977;SDS011;5542;48.272;10.794;2023-11-18T01:23:25;1.85;;;1.75;;
10977;SDS011;5542;48.272;10.794;2023-11-18T01:25:51;1.80;;;1.70;;
10977;SDS011;5542;48.272;10.794;2023-11-18T01:28:18;1.85;;;1.75;;
10977;SDS011;5542;48.272;10.794;2023-11-18T01:30:46;2.03;;;1.92;;
10977;SDS011;5542;48.272;10.794;2023-11-18T01:33:12;1.90;;;1.80;;
10977;SDS011;5542;48.272;10.794;2023-11-18T01:35:39;1.80;;;1.70;;
10977;SDS011;5542;48.272;10.794;2023-11-18T01:38:08;1.80;;;1.70;;
10977;SDS011;5542;48.272;10.794;2023-11-18T01:40:34;1.65;;;1.55;;
10977;SDS011;5542;48.272;10.794;2023-11-18T01:43:01;1.92;;;1.83;;
10977;SDS011;5542;48.272;10.794;2023-11-18T01:45:30;1.80;;;1.70;;
10977;SDS011;5542;48.272;10.794;2023-11-18T01:47:57;1.83;;;1.73;;
10977;SDS011;5542;48.272;10.794;2023-11-18T01:50:24;2.00;;;1.90;;
10977;SDS011;5542;48.272;10.794;2023-11-18T01:52:51;1.50;;;1.50;;
10977;SDS011;5542;48.272;10.794;2023-11-18T01:55:18;2.10;;;2.00;;
10977;SDS011;5542;48.272;10.794;2023-11-18T01:57:46;1.70;;;1.60;;
10977;SDS011;5542;48.272;10.794;2023-11-18T02:00:14;1.85;;;1.75;;
10977;SDS011;5542;48.272;10.794;2023-11-18T02:02:42;2.10;;;2.00;;
10977;SDS011;5542;48.272;10.794;2023-11-18T02:05:10;1.90;;;1.80;;
10977;SDS011;5542;48.272;10.794;2023-11-18T02:07:37;2.30;;;2.20;;
10977;SDS011;5542;48.272;10.794;2023-11-18T02:10:05;1.98;;;1.88;;
10977;SDS011;5542;48.272;10.794;2023-11-18T02:12:36;2.05;;;1.85;;
10977;SDS011;5542;48.272;10.794;2023-11-18T02:15:09;2.13;;;2.03;;
10977;SDS011;5542;48.272;10.794;2023-11-18T02:17:38;2.03;;;1.92;;
10977;SDS011;5542;48.272;10.794;2023-11-18T02:20:07;2.55;;;2.35;;
10977;SDS011;5542;48.272;10.794;2023-11-18T02:22:40;1.95;;;1.85;;
10977;SDS011;5542;48.272;10.794;2023-11-18T02:25:09;2.30;;;2.20;;
10977;SDS011;5542;48.272;10.794;2023-11-18T02:27:37;2.40;;;2.20;;
10977;SDS011;5542;48.272;10.794;2023-11-18T02:30:04;2.30;;;2.20;;
10977;SDS011;5542;48.272;10.794;2023-11-18T02:32:37;2.50;;;2.30;;
10977;SDS011;5542;48.272;10.794;2023-11-18T02:35:13;2.13;;;2.03;;
10977;SDS011;5542;48.272;10.794;2023-11-18T02:37:45;2.33;;;2.13;;
10977;SDS011;5542;48.272;10.794;2023-11-18T02:40:15;2.30;;;2.20;;
10977;SDS011;5542;48.272;10.794;2023-11-18T02:42:46;2.30;;;2.20;;
10977;SDS011;5542;48.272;10.794;2023-11-18T02:45:18;2.63;;;2.42;;
10977;SDS011;5542;48.272;10.794;2023-11-18T02:47:45;2.40;;;2.30;;
10977;SDS011;5542;48.272;10.794;2023-11-18T02:50:12;2.20;;;2.10;;
10977;SDS011;5542;48.272;10.794;2023-11-18T02:52:40;2.45;;;2.30;;
10977;SDS011;5542;48.272;10.794;2023-11-18T02:55:07;2.22;;;2.13;;
10977;SDS011;5542;48.272;10.794;2023-11-18T02:57:36;2.80;;;2.60;;
10977;SDS011;5542;48.272;10.794;2023-11-18T03:00:05;2.03;;;1.93;;
10977;SDS011;5542;48.272;10.794;2023-11-18T03:02:36;2.50;;;2.40;;
10977;SDS011;5542;48.272;10.794;2023-11-18T03:05:05;3.17;;;2.60;;
10977;SDS011;5542;48.272;10.794;2023-11-18T03:07:32;2.55;;;2.38;;
10977;SDS011;5542;48.272;10.794;2023-11-18T03:09:59;2.50;;;2.30;;
10977;SDS011;5542;48.272;10.794;2023-11-18T03:12:25;2.35;;;2.25;;
10977;SDS011;5542;48.272;10.794;2023-11-18T03:14:52;2.50;;;2.40;;
10977;SDS011;5542;48.272;10.794;2023-11-18T03:17:21;2.28;;;2.17;;
10977;SDS011;5542;48.272;10.794;2023-11-18T03:19:47;2.33;;;2.22;;
10977;SDS011;5542;48.272;10.794;2023-11-18T03:22:15;2.80;;;2.35;;
10977;SDS011;5542;48.272;10.794;2023-11-18T03:24:41;2.70;;;2.50;;
10977;SDS011;5542;48.272;10.794;2023-11-18T03:27:08;2.53;;;2.40;;
10977;SDS011;5542;48.272;10.794;2023-11-18T03:29:35;2.70;;;2.50;;
10977;SDS011;5542;48.272;10.794;2023-11-18T03:32:02;2.60;;;2.40;;
10977;SDS011;5542;48.272;10.794;2023-11-18T03:34:31;2.67;;;2.47;;
10977;SDS011;5542;48.272;10.794;2023-11-18T03:36:58;2.72;;;2.53;;
10977;SDS011;5542;48.272;10.794;2023-11-18T03:39:24;2.47;;;2.38;;
10977;SDS011;5542;48.272;10.794;2023-11-18T03:41:52;2.20;;;2.10;;
10977;SDS011;5542;48.272;10.794;2023-11-18T03:44:18;2.45;;;2.25;;
10977;SDS011;5542;48.272;10.794;2023-11-18T03:46:45;2.20;;;2.10;;
10977;SDS011;5542;48.272;10.794;2023-11-18T03:49:11;2.78;;;2.58;;
10977;SDS011;5542;48.272;10.794;2023-11-18T03:51:39;2.80;;;2.60;;
10977;SDS011;5542;48.272;10.794;2023-11-18T03:54:06;2.58;;;2.40;;
10977;SDS011;5542;48.272;10.794;2023-11-18T03:56:33;2.88;;;2.67;;
10977;SDS011;5542;48.272;10.794;2023-11-18T03:59:00;2.80;;;2.60;;
10977;SDS011;5542;48.272;10.794;2023-11-18T04:01:27;2.80;;;2.60;;
10977;SDS011;5542;48.272;10.794;2023-11-18T04:03:53;2.78;;;2.58;;
10977;SDS011;5542;48.272;10.794;2023-11-18T04:06:20;2.47;;;2.38;;
10977;SDS011;5542;48.272;10.794;2023-11-18T04:08:49;3.05;;;2.85;;
10977;SDS011;5542;48.272;10.794;2023-11-18T04:11:15;2.83;;;2.63;;
10977;SDS011;5542;48.272;10.794;2023-11-18T04:13:42;2.40;;;2.20;;
10977;SDS011;5542;48.272;10.794;2023-11-18T04:16:09;2.40;;;2.30;;
10977;SDS011;5542;48.272;10.794;2023-11-18T04:18:37;2.45;;;2.35;;
10977;SDS011;5542;48.272;10.794;2023-11-18T04:21:04;2.07;;;1.97;;
10977;SDS011;5542;48.272;10.794;2023-11-18T04:23:32;2.60;;;2.40;;
10977;SDS011;5542;48.272;10.794;2023-11-18T04:26:01;2.50;;;2.30;;
10977;SDS011;5542;48.272;10.794;2023-11-18T04:28:28;2.50;;;2.30;;
10977;SDS011;5542;48.272;10.794;2023-11-18T04:30:54;2.22;;;2.05;;
10977;SDS011;5542;48.272;10.794;2023-11-18T04:33:21;2.30;;;2.20;;
10977;SDS011;5542;48.272;10.794;2023-11-18T04:35:49;2.08;;;1.95;;
10977;SDS011;5542;48.272;10.794;2023-11-18T04:38:16;2.40;;;2.30;;
10977;SDS011;5542;48.272;10.794;2023-11-18T04:40:42;2.13;;;2.03;;
10977;SDS011;5542;48.272;10.794;2023-11-18T04:43:11;2.22;;;2.13;;
10977;SDS011;5542;48.272;10.794;2023-11-18T04:45:37;2.03;;;1.92;;
10977;SDS011;5542;48.272;10.794;2023-11-18T04:48:04;2.33;;;2.13;;
10977;SDS011;5542;48.272;10.794;2023-11-18T04:50:31;2.33;;;2.13;;
10977;SDS011;5542;48.272;10.794;2023-11-18T04:52:57;1.80;;;1.70;;
10977;SDS011;5542;48.272;10.794;2023-11-18T04:55:24;2.40;;;2.30;;
10977;SDS011;5542;48.272;10.794;2023-11-18T04:57:51;2.00;;;1.90;;
10977;SDS011;5542;48.272;10.794;2023-11-18T05:00:19;2.38;;;2.17;;
10977;SDS011;5542;48.272;10.794;2023-11-18T05:02:45;4.03;;;2.28;;
10977;SDS011;5542;48.272;10.794;2023-11-18T05:05:13;2.50;;;2.30;;
10977;SDS011;5542;48.272;10.794;2023-11-18T05:07:40;2.40;;;2.30;;
10977;SDS011;5542;48.272;10.794;2023-11-18T05:10:08;2.35;;;2.15;;
10977;SDS011;5542;48.272;10.794;2023-11-18T05:12:36;2.30;;;2.20;;
10977;SDS011;5542;48.272;10.794;2023-11-18T05:15:03;2.83;;;2.63;;
10977;SDS011;5542;48.272;10.794;2023-11-18T05:17:34;2.65;;;2.45;;
10977;SDS011;5542;48.272;10.794;2023-11-18T05:20:00;2.67;;;2.47;;
10977;SDS011;5542;48.272;10.794;2023-11-18T05:22:27;2.30;;;2.20;;
10977;SDS011;5542;48.272;10.794;2023-11-18T05:24:54;3.80;;;2.80;;
10977;SDS011;5542;48.272;10.794;2023-11-18T05:27:20;3.15;;;2.90;;
10977;SDS011;5542;48.272;10.794;2023-11-18T05:29:47;3.15;;;2.95;;
10977;SDS011;5542;48.272;10.794;2023-11-18T05:32:19;3.30;;;3.00;;
10977;SDS011;5542;48.272;10.794;2023-11-18T05:34:47;5.30;;;4.32;;
10977;SDS011;5542;48.272;10.794;2023-11-18T05:37:13;3.10;;;2.90;;
10977;SDS011;5542;48.272;10.794;2023-11-18T05:39:43;4.63;;;4.00;;
10977;SDS011;5542;48.272;10.794;2023-11-18T05:42:10;2.88;;;2.67;;
10977;SDS011;5542;48.272;10.794;2023-11-18T05:44:37;2.85;;;2.65;;
10977;SDS011;5542;48.272;10.794;2023-11-18T05:47:04;2.60;;;2.40;;
10977;SDS011;5542;48.272;10.794;2023-11-18T05:49:32;3.13;;;2.93;;
10977;SDS011;5542;48.272;10.794;2023-11-18T05:52:00;3.25;;;2.95;;
10977;SDS011;5542;48.272;10.794;2023-11-18T05:54:26;3.00;;;2.70;;
10977;SDS011;5542;48.272;10.794;2023-11-18T05:56:53;2.90;;;2.70;;
10977;SDS011;5542;48.272;10.794;2023-11-18T05:59:20;2.75;;;2.55;;
10977;SDS011;5542;48.272;10.794;2023-11-18T06:01:47;2.97;;;2.77;;
10977;SDS011;5542;48.272;10.794;2023-11-18T06:04:13;3.40;;;3.10;;
10977;SDS011;5542;48.272;10.794;2023-11-18T06:06:40;3.40;;;3.10;;
10977;SDS011;5542;48.272;10.794;2023-11-18T06:09:08;2.83;;;2.63;;
10977;SDS011;5542;48.272;10.794;2023-11-18T06:11:42;3.30;;;3.00;;
10977;SDS011;5542;48.272;10.794;2023-11-18T06:14:10;3.40;;;3.10;;
10977;SDS011;5542;48.272;10.794;2023-11-18T06:16:38;3.30;;;3.00;;
10977;SDS011;5542;48.272;10.794;2023-11-18T06:19:05;3.00;;;2.80;;
10977;SDS011;5542;48.272;10.794;2023-11-18T06:21:33;3.30;;;3.10;;
10977;SDS011;5542;48.272;10.794;2023-11-18T06:23:59;2.83;;;2.63;;
10977;SDS011;5542;48.272;10.794;2023-11-18T06:26:30;3.20;;;2.90;;
10977;SDS011;5542;48.272;10.794;2023-11-18T06:28:56;2.88;;;2.67;;
10977;SDS011;5542;48.272;10.794;2023-11-18T06:31:24;3.13;;;2.80;;
10977;SDS011;5542;48.272;10.794;2023-11-18T06:33:51;3.40;;;3.10;;
10977;SDS011;5542;48.272;10.794;2023-11-18T06:36:17;3.35;;;3.15;;
10977;SDS011;5542;48.272;10.794;2023-11-18T06:38:45;3.50;;;3.20;;
10977;SDS011;5542;48.272;10.794;2023-11-18T06:41:14;2.80;;;2.60;;
10977;SDS011;5542;48.272;10.794;2023-11-18T06:43:44;2.47;;;2.28;;
10977;SDS011;5542;48.272;10.794;2023-11-18T06:46:22;2.75;;;2.55;;
10977;SDS011;5542;48.272;10.794;2023-11-18T06:48:51;3.22;;;2.92;;
10977;SDS011;5542;48.272;10.794;2023-11-18T06:51:19;2.83;;;2.63;;
10977;SDS011;5542;48.272;10.794;2023-11-18T06:53:48;3.05;;;2.75;;
10977;SDS011;5542;48.272;10.794;2023-11-18T06:56:15;2.70;;;2.50;;
10977;SDS011;5542;48.272;10.794;2023-11-18T06:58:42;2.33;;;2.17;;
10977;SDS011;5542;48.272;10.794;2023-11-18T07:01:11;3.17;;;2.97;;
10977;SDS011;5542;48.272;10.794;2023-11-18T07:03:39;2.78;;;2.58;;
10977;SDS011;5542;48.272;10.794;2023-11-18T07:06:07;2.90;;;2.70;;
10977;SDS011;5542;48.272;10.794;2023-11-18T07:08:34;2.92;;;2.72;;
10977;SDS011;5542;48.272;10.794;2023-11-18T07:11:01;3.00;;;2.78;;
10977;SDS011;5542;48.272;10.794;2023-11-18T07:13:28;3.05;;;2.80;;
10977;SDS011;5542;48.272;10.794;2023-11-18T07:15:57;3.40;;;3.10;;
10977;SDS011;5542;48.272;10.794;2023-11-18T07:18:24;4.43;;;4.03;;
10977;SDS011;5542;48.272;10.794;2023-11-18T07:20:50;3.17;;;2.92;;
10977;SDS011;5542;48.272;10.794;2023-11-18T07:23:17;3.30;;;3.10;;
10977;SDS011;5542;48.272;10.794;2023-11-18T07:25:44;4.30;;;3.90;;
10977;SDS011;5542;48.272;10.794;2023-11-18T07:28:10;3.80;;;3.50;;
10977;SDS011;5542;48.272;10.794;2023-11-18T07:30:39;4.03;;;3.67;;
10977;SDS011;5542;48.272;10.794;2023-11-18T07:33:07;3.58;;;3.30;;
10977;SDS011;5542;48.272;10.794;2023-11-18T07:35:35;4.17;;;3.70;;
10977;SDS011;5542;48.272;10.794;2023-11-18T07:38:02;2.95;;;2.75;;
10977;SDS011;5542;48.272;10.794;2023-11-18T07:40:28;4.88;;;3.17;;
10977;SDS011;5542;48.272;10.794;2023-11-18T07:42:55;3.75;;;3.00;;
10977;SDS011;5542;48.272;10.794;2023-11-18T07:45:21;6.13;;;3.22;;
10977;SDS011;5542;48.272;10.794;2023-11-18T07:47:48;4.20;;;3.28;;
10977;SDS011;5542;48.272;10.794;2023-11-18T07:50:17;5.03;;;3.20;;
10977;SDS011;5542;48.272;10.794;2023-11-18T07:52:44;4.18;;;3.75;;
10977;SDS011;5542;48.272;10.794;2023-11-18T07:55:11;7.85;;;3.85;;
10977;SDS011;5542;48.272;10.794;2023-11-18T07:57:38;4.45;;;3.47;;
10977;SDS011;5542;48.272;10.794;2023-11-18T08:00:05;4.30;;;3.60;;
10977;SDS011;5542;48.272;10.794;2023-11-18T08:02:34;4.00;;;3.70;;
10977;SDS011;5542;48.272;10.794;2023-11-18T08:05:01;4.60;;;3.70;;
10977;SDS011;5542;48.272;10.794;2023-11-18T08:07:30;3.50;;;3.20;;
10977;SDS011;5542;48.272;10.794;2023-11-18T08:09:57;3.15;;;2.90;;
10977;SDS011;5542;48.272;10.794;2023-11-18T08:12:23;3.60;;;3.25;;
10977;SDS011;5542;48.272;10.794;2023-11-18T08:14:50;3.70;;;3.40;;
10977;SDS011;5542;48.272;10.794;2023-11-18T08:17:16;4.10;;;3.70;;
10977;SDS011;5542;48.272;10.794;2023-11-18T08:19:43;3.38;;;3.10;;
10977;SDS011;5542;48.272;10.794;2023-11-18T08:22:11;3.33;;;3.03;;
10977;SDS011;5542;48.272;10.794;2023-11-18T08:24:40;7.10;;;6.00;;
10977;SDS011;5542;48.272;10.794;2023-11-18T08:27:06;4.10;;;3.80;;
10977;SDS011;5542;48.272;10.794;2023-11-18T08:29:33;4.55;;;4.13;;
10977;SDS011;5542;48.272;10.794;2023-11-18T08:32:01;5.10;;;4.60;;
10977;SDS011;5542;48.272;10.794;2023-11-18T08:34:27;9.20;;;7.47;;
10977;SDS011;5542;48.272;10.794;2023-11-18T08:36:54;4.55;;;4.15;;
10977;SDS011;5542;48.272;10.794;2023-11-18T08:39:20;6.32;;;4.78;;
10977;SDS011;5542;48.272;10.794;2023-11-18T08:41:52;4.57;;;4.18;;
10977;SDS011;5542;48.272;10.794;2023-11-18T08:44:18;7.93;;;7.13;;
10977;SDS011;5542;48.272;10.794;2023-11-18T08:46:44;4.65;;;4.25;;
10977;SDS011;5542;48.272;10.794;2023-11-18T08:49:11;4.38;;;3.70;;
10977;SDS011;5542;48.272;10.794;2023-11-18T08:51:38;6.15;;;4.90;;
10977;SDS011;5542;48.272;10.794;2023-11-18T08:54:07;3.78;;;3.47;;
10977;SDS011;5542;48.272;10.794;2023-11-18T08:56:47;6.50;;;5.50;;
10977;SDS011;5542;48.272;10.794;2023-11-18T08:59:17;4.35;;;3.95;;
10977;SDS011;5542;48.272;10.794;2023-11-18T09:01:45;4.18;;;3.78;;
10977;SDS011;5542;48.272;10.794;2023-11-18T09:04:14;4.55;;;4.15;;
10977;SDS011;5542;48.272;10.794;2023-11-18T09:06:40;4.87;;;3.80;;
10977;SDS011;5542;48.272;10.794;2023-11-18T09:09:07;4.10;;;3.70;;
10977;SDS011;5542;48.272;10.794;2023-11-18T09:11:36;3.63;;;3.33;;
10977;SDS011;5542;48.272;10.794;2023-11-18T09:14:06;4.07;;;3.38;;
10977;SDS011;5542;48.272;10.794;2023-11-18T09:16:34;4.15;;;3.75;;
10977;SDS011;5542;48.272;10.794;2023-11-18T09:19:04;5.15;;;4.65;;
10977;SDS011;5542;48.272;10.794;2023-11-18T09:21:31;4.10;;;3.70;;
10977;SDS011;5542;48.272;10.794;2023-11-18T09:24:00;4.80;;;4.05;;
10977;SDS011;5542;48.272;10.794;2023-11-18T09:26:30;4.40;;;4.00;;
10977;SDS011;5542;48.272;10.794;2023-11-18T09:28:57;4.28;;;3.88;;
10977;SDS011;5542;48.272;10.794;2023-11-18T09:31:26;3.25;;;2.95;;
10977;SDS011;5542;48.272;10.794;2023-11-18T09:33:54;3.10;;;2.90;;
10977;SDS011;5542;48.272;10.794;2023-11-18T09:36:22;3.60;;;3.08;;
10977;SDS011;5542;48.272;10.794;2023-11-18T09:38:49;3.08;;;2.85;;
10977;SDS011;5542;48.272;10.794;2023-11-18T09:41:16;2.88;;;2.67;;
10977;SDS011;5542;48.272;10.794;2023-11-18T09:43:43;3.43;;;3.07;;
10977;SDS011;5542;48.272;10.794;2023-11-18T09:46:11;3.25;;;2.70;;
10977;SDS011;5542;48.272;10.794;2023-11-18T09:48:40;3.20;;;2.90;;
10977;SDS011;5542;48.272;10.794;2023-11-18T09:51:13;3.30;;;3.00;;
10977;SDS011;5542;48.272;10.794;2023-11-18T09:53:43;3.13;;;2.75;;
10977;SDS011;5542;48.272;10.794;2023-11-18T09:56:13;3.05;;;2.60;;
10977;SDS011;5542;48.272;10.794;2023-11-18T09:58:54;4.13;;;3.03;;
10977;SDS011;5542;48.272;10.794;2023-11-18T10:01:28;3.17;;;2.88;;
10977;SDS011;5542;48.272;10.794;2023-11-18T10:03:58;2.75;;;2.55;;
10977;SDS011;5542;48.272;10.794;2023-11-18T10:06:27;2.90;;;2.70;;
10977;SDS011;5542;48.272;10.794;2023-11-18T10:08:59;3.07;;;2.77;;
10977;SDS011;5542;48.272;10.794;2023-11-18T10:11:40;2.58;;;2.38;;
10977;SDS011;5542;48.272;10.794;2023-11-18T10:14:07;4.40;;;3.20;;
10977;SDS011;5542;48.272;10.794;2023-11-18T10:16:33;2.70;;;2.37;;
10977;SDS011;5542;48.272;10.794;2023-11-18T10:19:00;2.63;;;2.42;;
10977;SDS011;5542;48.272;10.794;2023-11-18T10:21:35;2.60;;;2.30;;
10977;SDS011;5542;48.272;10.794;2023-11-18T10:24:05;2.63;;;2.42;;
10977;SDS011;5542;48.272;10.794;2023-11-18T10:26:39;2.55;;;2.10;;
10977;SDS011;5542;48.272;10.794;2023-11-18T10:29:06;2.30;;;2.10;;
10977;SDS011;5542;48.272;10.794;2023-11-18T10:31:35;2.50;;;2.30;;
10977;SDS011;5542;48.272;10.794;2023-11-18T10:34:09;2.17;;;2.08;;
10977;SDS011;5542;48.272;10.794;2023-11-18T10:36:38;2.25;;;2.05;;
10977;SDS011;5542;48.272;10.794;2023-11-18T10:39:05;3.47;;;2.35;;
10977;SDS011;5542;48.272;10.794;2023-11-18T10:41:39;1.95;;;1.85;;
10977;SDS011;5542;48.272;10.794;2023-11-18T10:44:07;1.60;;;1.50;;
10977;SDS011;5542;48.272;10.794;2023-11-18T10:46:39;1.80;;;1.70;;
10977;SDS011;5542;48.272;10.794;2023-11-18T10:49:06;2.00;;;1.40;;
10977;SDS011;5542;48.272;10.794;2023-11-18T10:51:35;1.77;;;1.67;;
10977;SDS011;5542;48.272;10.794;2023-11-18T10:54:05;1.60;;;1.50;;
10977;SDS011;5542;48.272;10.794;2023-11-18T10:56:45;2.03;;;1.90;;
10977;SDS011;5542;48.272;10.794;2023-11-18T10:59:12;2.53;;;2.33;;
10977;SDS011;5542;48.272;10.794;2023-11-18T11:01:41;2.25;;;2.05;;
10977;SDS011;5542;48.272;10.794;2023-11-18T11:04:09;1.85;;;1.65;;
10977;SDS011;5542;48.272;10.794;2023-11-18T11:06:41;1.55;;;1.45;;
10977;SDS011;5542;48.272;10.794;2023-11-18T11:09:09;1.55;;;1.45;;
10977;SDS011;5542;48.272;10.794;2023-11-18T11:11:44;1.53;;;1.47;;
10977;SDS011;5542;48.272;10.794;2023-11-18T11:14:14;1.15;;;1.15;;
10977;SDS011;5542;48.272;10.794;2023-11-18T11:16:45;1.40;;;1.30;;
10977;SDS011;5542;48.272;10.794;2023-11-18T11:19:16;1.80;;;1.70;;
10977;SDS011;5542;48.272;10.794;2023-11-18T11:21:52;1.52;;;1.42;;
10977;SDS011;5542;48.272;10.794;2023-11-18T11:24:31;1.70;;;1.58;;
10977;SDS011;5542;48.272;10.794;2023-11-18T11:27:09;1.30;;;1.20;;
10977;SDS011;5542;48.272;10.794;2023-11-18T11:29:55;1.55;;;1.45;;
10977;SDS011;5542;48.272;10.794;2023-11-18T11:32:26;1.30;;;1.20;;
10977;SDS011;5542;48.272;10.794;2023-11-18T11:35:03;1.38;;;1.27;;
10977;SDS011;5542;48.272;10.794;2023-11-18T11:37:42;1.70;;;1.60;;
10977;SDS011;5542;48.272;10.794;2023-11-18T11:40:13;2.45;;;2.25;;
10977;SDS011;5542;48.272;10.794;2023-11-18T11:42:47;1.73;;;1.63;;
10977;SDS011;5542;48.272;10.794;2023-11-18T11:45:20;1.37;;;1.27;;
10977;SDS011;5542;48.272;10.794;2023-11-18T11:47:47;1.52;;;1.38;;
10977;SDS011;5542;48.272;10.794;2023-11-18T11:50:18;1.60;;;1.40;;
10977;SDS011;5542;48.272;10.794;2023-11-18T11:52:58;1.67;;;1.58;;
10977;SDS011;5542;48.272;10.794;2023-11-18T11:55:36;1.20;;;1.20;;
10977;SDS011;5542;48.272;10.794;2023-11-18T12:00:56;2.50;;;2.40;;
10977;SDS011;5542;48.272;10.794;2023-11-18T12:03:26;1.80;;;1.70;;
10977;SDS011;5542;48.272;10.794;2023-11-18T12:05:59;6.00;;;3.67;;
10977;SDS011;5542;48.272;10.794;2023-11-18T12:08:32;10.07;;;8.25;;
10977;SDS011;5542;48.272;10.794;2023-11-18T12:11:04;3.10;;;2.53;;
10977;SDS011;5542;48.272;10.794;2023-11-18T12:13:34;9.37;;;6.97;;
10977;SDS011;5542;48.272;10.794;2023-11-18T12:16:05;2.40;;;1.50;;
10977;SDS011;5542;48.272;10.794;2023-11-18T12:18:35;3.17;;;2.88;;
10977;SDS011;5542;48.272;10.794;2023-11-18T12:21:02;1.70;;;1.60;;
10977;SDS011;5542;48.272;10.794;2023-11-18T12:23:29;3.83;;;3.53;;
10977;SDS011;5542;48.272;10.794;2023-11-18T12:25:59;2.35;;;2.22;;
10977;SDS011;5542;48.272;10.794;2023-11-18T12:28:29;1.50;;;1.40;;
10977;SDS011;5542;48.272;10.794;2023-11-18T12:30:59;1.23;;;1.23;;
10977;SDS011;5542;48.272;10.794;2023-11-18T12:39:54;1.95;;;1.77;;
10977;SDS011;5542;48.272;10.794;2023-11-18T12:45:43;1.30;;;1.20;;
10977;SDS011;5542;48.272;10.794;2023-11-18T12:48:20;0.90;;;0.90;;
10977;SDS011;5542;48.272;10.794;2023-11-18T12:50:52;1.20;;;1.20;;
10977;SDS011;5542;48.272;10.794;2023-11-18T12:53:20;1.00;;;1.00;;
10977;SDS011;5542;48.272;10.794;2023-11-18T12:55:49;1.27;;;1.27;;
10977;SDS011;5542;48.272;10.794;2023-11-18T12:58:17;1.90;;;1.70;;
10977;SDS011;5542;48.272;10.794;2023-11-18T13:00:45;3.60;;;3.30;;
10977;SDS011;5542;48.272;10.794;2023-11-18T13:03:12;4.15;;;3.75;;
10977;SDS011;5542;48.272;10.794;2023-11-18T13:05:40;3.00;;;2.30;;
10977;SDS011;5542;48.272;10.794;2023-11-18T13:08:08;1.83;;;1.73;;
10977;SDS011;5542;48.272;10.794;2023-11-18T13:10:35;1.98;;;1.75;;
10977;SDS011;5542;48.272;10.794;2023-11-18T13:13:01;2.78;;;2.58;;
10977;SDS011;5542;48.272;10.794;2023-11-18T13:15:30;3.60;;;2.50;;
10977;SDS011;5542;48.272;10.794;2023-11-18T13:17:59;2.17;;;2.03;;
10977;SDS011;5542;48.272;10.794;2023-11-18T13:20:26;2.28;;;2.17;;
10977;SDS011;5542;48.272;10.794;2023-11-18T13:22:53;1.95;;;1.85;;
10977;SDS011;5542;48.272;10.794;2023-11-18T13:25:20;1.30;;;1.20;;
10977;SDS011;5542;48.272;10.794;2023-11-18T13:27:47;3.00;;;1.88;;
10977;SDS011;5542;48.272;10.794;2023-11-18T13:30:14;2.10;;;2.00;;
10977;SDS011;5542;48.272;10.794;2023-11-18T13:32:42;1.20;;;1.20;;
10977;SDS011;5542;48.272;10.794;2023-11-18T13:35:11;1.40;;;1.30;;
10977;SDS011;5542;48.272;10.794;2023-11-18T13:37:38;1.05;;;1.05;;
10977;SDS011;5542;48.272;10.794;2023-11-18T13:40:07;2.05;;;1.30;;
10977;SDS011;5542;48.272;10.794;2023-11-18T13:42:34;1.52;;;1.40;;
10977;SDS011;5542;48.272;10.794;2023-11-18T13:45:03;2.10;;;1.20;;
10977;SDS011;5542;48.272;10.794;2023-11-18T13:47:37;2.00;;;1.90;;
10977;SDS011;5542;48.272;10.794;2023-11-18T13:50:06;1.40;;;1.30;;
10977;SDS011;5542;48.272;10.794;2023-11-18T13:52:34;1.67;;;1.58;;
10977;SDS011;5542;48.272;10.794;2023-11-18T13:55:04;1.40;;;1.30;;
10977;SDS011;5542;48.272;10.794;2023-11-18T13:57:32;1.48;;;1.38;;
10977;SDS011;5542;48.272;10.794;2023-11-18T13:59:59;5.75;;;2.88;;
10977;SDS011;5542;48.272;10.794;2023-11-18T14:02:26;2.10;;;2.00;;
10977;SDS011;5542;48.272;10.794;2023-11-18T14:04:54;1.52;;;1.42;;
10977;SDS011;5542;48.272;10.794;2023-11-18T14:07:22;1.85;;;1.50;;
10977;SDS011;5542;48.272;10.794;2023-11-18T14:09:50;1.27;;;1.27;;
10977;SDS011;5542;48.272;10.794;2023-11-18T14:12:21;5.60;;;3.00;;
10977;SDS011;5542;48.272;10.794;2023-11-18T14:14:51;1.80;;;1.70;;
10977;SDS011;5542;48.272;10.794;2023-11-18T14:17:18;1.50;;;1.40;;
10977;SDS011;5542;48.272;10.794;2023-11-18T14:19:44;1.70;;;1.60;;
10977;SDS011;5542;48.272;10.794;2023-11-18T14:22:11;1.83;;;1.47;;
10977;SDS011;5542;48.272;10.794;2023-11-18T14:24:37;4.60;;;3.13;;
10977;SDS011;5542;48.272;10.794;2023-11-18T14:27:06;3.45;;;3.05;;
10977;SDS011;5542;48.272;10.794;2023-11-18T14:29:35;3.30;;;3.00;;
10977;SDS011;5542;48.272;10.794;2023-11-18T14:32:03;3.13;;;2.55;;
10977;SDS011;5542;48.272;10.794;2023-11-18T14:34:31;1.70;;;1.60;;
10977;SDS011;5542;48.272;10.794;2023-11-18T14:36:58;3.20;;;2.90;;
10977;SDS011;5542;48.272;10.794;2023-11-18T14:39:25;2.30;;;2.10;;
10977;SDS011;5542;48.272;10.794;2023-11-18T14:41:52;1.90;;;1.70;;
10977;SDS011;5542;48.272;10.794;2023-11-18T14:44:20;1.95;;;1.85;;
10977;SDS011;5542;48.272;10.794;2023-11-18T14:46:47;3.38;;;3.08;;
10977;SDS011;5542;48.272;10.794;2023-11-18T14:49:13;2.00;;;1.90;;
10977;SDS011;5542;48.272;10.794;2023-11-18T14:51:40;1.58;;;1.48;;
10977;SDS011;5542;48.272;10.794;2023-11-18T14:54:08;3.50;;;3.03;;
10977;SDS011;5542;48.272;10.794;2023-11-18T14:56:34;4.68;;;4.10;;
10977;SDS011;5542;48.272;10.794;2023-11-18T14:59:01;3.47;;;3.17;;
10977;SDS011;5542;48.272;10.794;2023-11-18T15:01:31;2.20;;;2.00;;
10977;SDS011;5542;48.272;10.794;2023-11-18T15:03:58;1.60;;;1.50;;
10977;SDS011;5542;48.272;10.794;2023-11-18T15:06:25;2.28;;;2.10;;
10977;SDS011;5542;48.272;10.794;2023-11-18T15:08:51;3.20;;;2.00;;